KLM25U EHAM-LFMT
Flight info
| Callsign | KLM25U |
|---|---|
| Flight time | 1h 30m |
| Altitude | 23000 |
| Route | WOODY N872 CIV/N0455F310 N872 MEDIL DCT KOVIN DCT DUCRA UM728 RESMI UN857 DISAK DCT DIRMO DCT ETAMO DCT ADEKA DCT MOKDI DCT MEN |
| Aircraft | E190/M-SDE2E3FGIJ1RWY/LB1 |
Departure
| Time | 2026-05-07 17:45 |
|---|---|
| Airport | Amsterdam Airport Schiphol (EHAM) |
Arrival
| Time | 2026-05-07 19:16 |
|---|---|
| Airport | Montpellier-Méditerranée Airport (LFMT) |
| Time | Latitude | Longitude | Altitude | Speed | Heading |
|---|---|---|---|---|---|
| 2026-05-07 17:12 | 52.30281 | 4.76270 | -1 ft | 0 kts | 58° |
| 2026-05-07 17:35 | 52.30281 | 4.76271 | -1 ft | 0 kts | 58° |
| 2026-05-07 17:36 | 52.30274 | 4.76252 | -1 ft | 2 kts | 59° |
| 2026-05-07 17:36 | 52.30267 | 4.76231 | -1 ft | 2 kts | 78° |
| 2026-05-07 17:36 | 52.30267 | 4.76207 | -1 ft | 2 kts | 107° |
| 2026-05-07 17:36 | 52.30275 | 4.76186 | -1 ft | 2 kts | 136° |
| 2026-05-07 17:37 | 52.30281 | 4.76178 | -1 ft | 0 kts | 148° |
| 2026-05-07 17:39 | 52.30279 | 4.76180 | -1 ft | 1 kts | 148° |
| 2026-05-07 17:40 | 52.30257 | 4.76202 | -1 ft | 6 kts | 148° |
| 2026-05-07 17:40 | 52.30205 | 4.76246 | -1 ft | 10 kts | 177° |
| 2026-05-07 17:40 | 52.30150 | 4.76143 | -1 ft | 14 kts | 237° |
| 2026-05-07 17:40 | 52.30088 | 4.75978 | -1 ft | 19 kts | 238° |
| 2026-05-07 17:41 | 52.30008 | 4.75771 | -1 ft | 23 kts | 238° |
| 2026-05-07 17:41 | 52.29914 | 4.75526 | -1 ft | 25 kts | 239° |
| 2026-05-07 17:41 | 52.29839 | 4.75322 | -1 ft | 20 kts | 251° |
| 2026-05-07 17:41 | 52.29882 | 4.75119 | -1 ft | 20 kts | 312° |
| 2026-05-07 17:42 | 52.29975 | 4.74944 | -1 ft | 20 kts | 311° |
| 2026-05-07 17:42 | 52.30070 | 4.74770 | -1 ft | 20 kts | 311° |
| 2026-05-07 17:42 | 52.30162 | 4.74599 | -1 ft | 17 kts | 312° |
| 2026-05-07 17:42 | 52.30244 | 4.74446 | -1 ft | 18 kts | 313° |
| 2026-05-07 17:43 | 52.30324 | 4.74288 | -1 ft | 18 kts | 300° |
| 2026-05-07 17:43 | 52.30333 | 4.74090 | -1 ft | 18 kts | 246° |
| 2026-05-07 17:43 | 52.30246 | 4.73945 | -1 ft | 18 kts | 218° |
| 2026-05-07 17:43 | 52.30196 | 4.73781 | -1 ft | 17 kts | 296° |
| 2026-05-07 17:44 | 52.30281 | 4.73740 | -1 ft | 10 kts | 3° |
| 2026-05-07 17:44 | 52.30403 | 4.73751 | -1 ft | 43 kts | 3° |
| 2026-05-07 17:44 | 52.30878 | 4.73796 | -1 ft | 93 kts | 3° |
| 2026-05-07 17:44 | 52.31747 | 4.73868 | 4 ft | 152 kts | 5° |
| 2026-05-07 17:45 | 52.32858 | 4.73969 | 439 ft | 167 kts | 5° |
| 2026-05-07 17:45 | 52.34011 | 4.74141 | 1188 ft | 168 kts | 15° |
| 2026-05-07 17:45 | 52.35035 | 4.74793 | 1609 ft | 154 kts | 27° |
| 2026-05-07 17:45 | 52.36025 | 4.75550 | 1634 ft | 175 kts | 27° |
| 2026-05-07 17:46 | 52.37128 | 4.76690 | 1728 ft | 200 kts | 52° |
| 2026-05-07 17:46 | 52.37530 | 4.78874 | 1679 ft | 210 kts | 96° |
| 2026-05-07 17:46 | 52.37200 | 4.81287 | 2060 ft | 229 kts | 102° |
| 2026-05-07 17:46 | 52.36577 | 4.83636 | 3011 ft | 233 kts | 133° |
| 2026-05-07 17:47 | 52.35175 | 4.84903 | 3832 ft | 243 kts | 170° |
| 2026-05-07 17:47 | 52.33441 | 4.84971 | 4460 ft | 259 kts | 180° |
| 2026-05-07 17:47 | 52.31619 | 4.84922 | 5235 ft | 268 kts | 180° |
| 2026-05-07 17:47 | 52.29765 | 4.84878 | 6156 ft | 271 kts | 180° |
| 2026-05-07 17:48 | 52.27882 | 4.84837 | 7120 ft | 271 kts | 180° |
| 2026-05-07 17:48 | 52.26004 | 4.84797 | 7990 ft | 274 kts | 180° |
| 2026-05-07 17:48 | 52.24083 | 4.84757 | 8801 ft | 278 kts | 181° |
| 2026-05-07 17:48 | 52.22150 | 4.84716 | 9577 ft | 283 kts | 181° |
| 2026-05-07 17:49 | 52.20202 | 4.84598 | 10334 ft | 286 kts | 190° |
| 2026-05-07 17:49 | 52.18376 | 4.83280 | 10998 ft | 291 kts | 216° |
| 2026-05-07 17:49 | 52.16640 | 4.81570 | 11593 ft | 301 kts | 208° |
| 2026-05-07 17:49 | 52.14716 | 4.80101 | 12133 ft | 312 kts | 204° |
| 2026-05-07 17:50 | 52.12685 | 4.78752 | 12707 ft | 320 kts | 202° |
| 2026-05-07 17:50 | 52.10802 | 4.77580 | 13316 ft | 325 kts | 201° |
| 2026-05-07 17:50 | 52.08540 | 4.76212 | 14090 ft | 327 kts | 201° |
| 2026-05-07 17:50 | 52.06402 | 4.74938 | 14817 ft | 330 kts | 201° |
| 2026-05-07 17:51 | 52.04198 | 4.73633 | 15520 ft | 333 kts | 201° |
| 2026-05-07 17:51 | 52.02043 | 4.72361 | 16158 ft | 336 kts | 201° |
| 2026-05-07 17:51 | 51.99831 | 4.71058 | 16824 ft | 340 kts | 201° |
| 2026-05-07 17:51 | 51.97592 | 4.69740 | 17468 ft | 343 kts | 201° |
| 2026-05-07 17:52 | 51.95358 | 4.68426 | 18112 ft | 346 kts | 201° |
| 2026-05-07 17:52 | 51.93073 | 4.67085 | 18744 ft | 349 kts | 201° |
| 2026-05-07 17:52 | 51.90803 | 4.65753 | 19376 ft | 351 kts | 201° |
| 2026-05-07 17:52 | 51.88479 | 4.64392 | 20043 ft | 353 kts | 201° |
| 2026-05-07 17:53 | 51.86147 | 4.63027 | 20665 ft | 356 kts | 201° |
| 2026-05-07 17:53 | 51.83823 | 4.61668 | 21253 ft | 359 kts | 201° |
| 2026-05-07 17:53 | 51.81467 | 4.60292 | 21848 ft | 362 kts | 201° |
| 2026-05-07 17:53 | 51.79095 | 4.58910 | 22410 ft | 365 kts | 201° |
| 2026-05-07 17:54 | 51.76660 | 4.57491 | 22978 ft | 369 kts | 201° |
| 2026-05-07 17:54 | 51.74249 | 4.56088 | 23542 ft | 371 kts | 201° |
| 2026-05-07 17:54 | 51.71806 | 4.54668 | 24105 ft | 374 kts | 201° |
| 2026-05-07 17:54 | 51.69360 | 4.53247 | 24658 ft | 377 kts | 201° |
| 2026-05-07 17:55 | 51.66915 | 4.51830 | 25188 ft | 379 kts | 201° |
| 2026-05-07 17:55 | 51.64424 | 4.50387 | 25724 ft | 382 kts | 201° |
| 2026-05-07 17:55 | 51.61927 | 4.48942 | 26248 ft | 384 kts | 202° |
| 2026-05-07 17:55 | 51.59357 | 4.47457 | 26775 ft | 387 kts | 201° |
| 2026-05-07 17:56 | 51.56800 | 4.45981 | 27284 ft | 390 kts | 201° |
| 2026-05-07 17:56 | 51.54229 | 4.44498 | 27778 ft | 392 kts | 202° |
| 2026-05-07 17:56 | 51.51649 | 4.43013 | 28249 ft | 395 kts | 202° |
| 2026-05-07 17:56 | 51.49044 | 4.41515 | 28709 ft | 398 kts | 202° |
| 2026-05-07 17:57 | 51.46447 | 4.40023 | 29148 ft | 401 kts | 202° |
| 2026-05-07 17:57 | 51.44695 | 4.39018 | 29437 ft | 403 kts | 202° |
| 2026-05-07 17:57 | 51.41141 | 4.36981 | 30015 ft | 407 kts | 202° |
| 2026-05-07 17:57 | 51.38551 | 4.35242 | 30422 ft | 408 kts | 209° |
| 2026-05-07 17:58 | 51.35998 | 4.33216 | 30823 ft | 411 kts | 207° |
| 2026-05-07 17:58 | 51.33408 | 4.31221 | 31041 ft | 414 kts | 207° |
| 2026-05-07 17:58 | 51.30796 | 4.29229 | 31067 ft | 428 kts | 207° |
| 2026-05-07 17:58 | 51.28021 | 4.27117 | 31070 ft | 441 kts | 207° |
| 2026-05-07 17:59 | 51.22434 | 4.22880 | 31059 ft | 442 kts | 207° |
| 2026-05-07 17:59 | 51.16913 | 4.18719 | 31055 ft | 440 kts | 205° |
| 2026-05-07 18:00 | 51.11095 | 4.15419 | 31058 ft | 442 kts | 200° |
| 2026-05-07 18:00 | 51.05287 | 4.12238 | 31057 ft | 443 kts | 201° |
| 2026-05-07 18:01 | 50.99483 | 4.09065 | 31053 ft | 443 kts | 201° |
| 2026-05-07 18:01 | 50.93637 | 4.05877 | 31052 ft | 443 kts | 201° |
| 2026-05-07 18:02 | 50.85064 | 4.00956 | 31054 ft | 441 kts | 204° |
| 2026-05-07 18:03 | 50.79375 | 3.97287 | 31042 ft | 441 kts | 204° |
| 2026-05-07 18:03 | 50.73688 | 3.93649 | 31040 ft | 440 kts | 204° |
| 2026-05-07 18:04 | 50.68070 | 3.89813 | 31035 ft | 439 kts | 212° |
| 2026-05-07 18:04 | 50.62961 | 3.84658 | 31038 ft | 439 kts | 211° |
| 2026-05-07 18:05 | 50.57498 | 3.80439 | 31034 ft | 439 kts | 207° |
| 2026-05-07 18:05 | 50.51949 | 3.76405 | 31038 ft | 440 kts | 207° |
| 2026-05-07 18:06 | 50.46380 | 3.72389 | 31035 ft | 440 kts | 207° |
| 2026-05-07 18:06 | 50.40819 | 3.68390 | 31030 ft | 440 kts | 207° |
| 2026-05-07 18:07 | 50.35259 | 3.64403 | 31032 ft | 440 kts | 207° |
| 2026-05-07 18:07 | 50.29688 | 3.60418 | 31018 ft | 441 kts | 207° |
| 2026-05-07 18:08 | 50.24111 | 3.56439 | 31009 ft | 442 kts | 207° |
| 2026-05-07 18:08 | 50.18503 | 3.52449 | 31010 ft | 441 kts | 207° |
| 2026-05-07 18:09 | 50.12961 | 3.48516 | 31003 ft | 440 kts | 207° |
| 2026-05-07 18:09 | 50.07380 | 3.44565 | 31005 ft | 441 kts | 207° |
| 2026-05-07 18:10 | 50.01794 | 3.40621 | 31004 ft | 441 kts | 207° |
| 2026-05-07 18:10 | 49.96198 | 3.36679 | 31003 ft | 442 kts | 207° |
| 2026-05-07 18:11 | 49.90622 | 3.32762 | 31008 ft | 442 kts | 206° |
| 2026-05-07 18:11 | 49.85019 | 3.28836 | 31017 ft | 442 kts | 206° |
| 2026-05-07 18:12 | 49.79393 | 3.24904 | 31024 ft | 442 kts | 206° |
| 2026-05-07 18:12 | 49.73814 | 3.21015 | 31022 ft | 441 kts | 206° |
| 2026-05-07 18:13 | 49.68219 | 3.17124 | 31021 ft | 440 kts | 206° |
| 2026-05-07 18:13 | 49.62643 | 3.13257 | 31022 ft | 441 kts | 206° |
| 2026-05-07 18:14 | 49.57079 | 3.09407 | 31019 ft | 441 kts | 206° |
| 2026-05-07 18:14 | 49.51506 | 3.05561 | 31018 ft | 441 kts | 206° |
| 2026-05-07 18:15 | 49.45924 | 3.01718 | 31015 ft | 440 kts | 206° |
| 2026-05-07 18:15 | 49.40335 | 2.97880 | 31015 ft | 441 kts | 206° |
| 2026-05-07 18:16 | 49.34707 | 2.94024 | 31016 ft | 440 kts | 205° |
| 2026-05-07 18:16 | 49.29150 | 2.90228 | 31015 ft | 440 kts | 205° |
| 2026-05-07 18:17 | 49.23539 | 2.86404 | 31013 ft | 440 kts | 205° |
| 2026-05-07 18:17 | 49.17956 | 2.82609 | 31013 ft | 441 kts | 205° |
| 2026-05-07 18:18 | 49.12384 | 2.78830 | 31015 ft | 441 kts | 205° |
| 2026-05-07 18:18 | 49.06788 | 2.75044 | 31014 ft | 440 kts | 206° |
| 2026-05-07 18:19 | 49.01189 | 2.71265 | 31016 ft | 439 kts | 205° |
| 2026-05-07 18:19 | 48.95605 | 2.67507 | 31020 ft | 439 kts | 205° |
| 2026-05-07 18:20 | 48.90012 | 2.63751 | 31014 ft | 439 kts | 205° |
| 2026-05-07 18:20 | 48.84491 | 2.60053 | 31015 ft | 439 kts | 205° |
| 2026-05-07 18:21 | 48.78937 | 2.56341 | 31014 ft | 439 kts | 205° |
| 2026-05-07 18:21 | 48.73276 | 2.52567 | 31012 ft | 440 kts | 205° |
| 2026-05-07 18:22 | 48.67684 | 2.48848 | 31012 ft | 440 kts | 206° |
| 2026-05-07 18:22 | 48.62102 | 2.45146 | 31006 ft | 439 kts | 206° |
| 2026-05-07 18:23 | 48.56507 | 2.41443 | 31003 ft | 439 kts | 206° |
| 2026-05-07 18:23 | 48.50942 | 2.37770 | 31000 ft | 439 kts | 206° |
| 2026-05-07 18:24 | 48.45395 | 2.34117 | 30998 ft | 439 kts | 205° |
| 2026-05-07 18:24 | 48.39774 | 2.30423 | 30997 ft | 438 kts | 205° |
| 2026-05-07 18:25 | 48.34171 | 2.26751 | 30999 ft | 438 kts | 205° |
| 2026-05-07 18:25 | 48.28576 | 2.23093 | 30996 ft | 438 kts | 205° |
| 2026-05-07 18:26 | 48.22983 | 2.19444 | 30997 ft | 438 kts | 205° |
| 2026-05-07 18:26 | 48.17398 | 2.15810 | 30990 ft | 438 kts | 205° |
| 2026-05-07 18:27 | 48.11505 | 2.13526 | 30994 ft | 443 kts | 187° |
| 2026-05-07 18:27 | 48.05309 | 2.13638 | 30992 ft | 445 kts | 180° |
| 2026-05-07 18:28 | 47.99095 | 2.14006 | 30997 ft | 445 kts | 180° |
| 2026-05-07 18:28 | 47.92948 | 2.14367 | 31006 ft | 444 kts | 180° |
| 2026-05-07 18:29 | 47.86762 | 2.14730 | 31011 ft | 444 kts | 180° |
| 2026-05-07 18:29 | 47.80592 | 2.15091 | 31009 ft | 444 kts | 180° |
| 2026-05-07 18:30 | 47.74448 | 2.15449 | 31004 ft | 444 kts | 180° |
| 2026-05-07 18:30 | 47.68292 | 2.15808 | 30999 ft | 444 kts | 180° |
| 2026-05-07 18:31 | 47.62118 | 2.16166 | 30992 ft | 444 kts | 180° |
| 2026-05-07 18:31 | 47.55960 | 2.16523 | 30991 ft | 443 kts | 180° |
| 2026-05-07 18:32 | 47.49794 | 2.16879 | 30993 ft | 443 kts | 180° |
| 2026-05-07 18:32 | 47.43680 | 2.17232 | 30985 ft | 443 kts | 180° |
| 2026-05-07 18:33 | 47.37515 | 2.17587 | 30983 ft | 442 kts | 180° |
| 2026-05-07 18:33 | 47.31375 | 2.17939 | 30988 ft | 442 kts | 180° |
| 2026-05-07 18:34 | 47.25241 | 2.18290 | 30992 ft | 442 kts | 180° |
| 2026-05-07 18:34 | 47.19100 | 2.18641 | 30992 ft | 443 kts | 180° |
| 2026-05-07 18:35 | 47.12912 | 2.18994 | 30989 ft | 443 kts | 180° |
| 2026-05-07 18:35 | 47.06824 | 2.20425 | 30989 ft | 447 kts | 163° |
| 2026-05-07 18:36 | 47.01025 | 2.23828 | 30987 ft | 448 kts | 160° |
| 2026-05-07 18:36 | 46.95265 | 2.27203 | 30984 ft | 448 kts | 161° |
| 2026-05-07 18:37 | 46.89611 | 2.30499 | 30985 ft | 448 kts | 161° |
| 2026-05-07 18:37 | 46.83816 | 2.34054 | 30971 ft | 450 kts | 154° |
| 2026-05-07 18:38 | 46.78511 | 2.39007 | 30972 ft | 452 kts | 149° |
| 2026-05-07 18:38 | 46.73267 | 2.44010 | 30971 ft | 453 kts | 149° |
| 2026-05-07 18:39 | 46.67987 | 2.49030 | 30967 ft | 453 kts | 149° |
| 2026-05-07 18:39 | 46.62704 | 2.54041 | 30972 ft | 453 kts | 149° |
| 2026-05-07 18:40 | 46.57412 | 2.59049 | 30963 ft | 453 kts | 149° |
| 2026-05-07 18:40 | 46.52126 | 2.64039 | 30965 ft | 452 kts | 149° |
| 2026-05-07 18:41 | 46.46832 | 2.69024 | 30954 ft | 452 kts | 150° |
| 2026-05-07 18:41 | 46.41564 | 2.73974 | 30955 ft | 452 kts | 150° |
| 2026-05-07 18:42 | 46.36308 | 2.78901 | 30958 ft | 452 kts | 150° |
| 2026-05-07 18:42 | 46.31027 | 2.83839 | 30953 ft | 452 kts | 150° |
| 2026-05-07 18:43 | 46.25710 | 2.88800 | 30955 ft | 452 kts | 150° |
| 2026-05-07 18:43 | 46.20453 | 2.93694 | 30954 ft | 452 kts | 150° |
| 2026-05-07 18:44 | 46.15178 | 2.98593 | 30947 ft | 451 kts | 150° |
| 2026-05-07 18:44 | 46.09920 | 3.03464 | 30955 ft | 452 kts | 150° |
| 2026-05-07 18:45 | 46.04596 | 3.08386 | 30952 ft | 451 kts | 150° |
| 2026-05-07 18:45 | 45.99336 | 3.13237 | 30955 ft | 452 kts | 150° |
| 2026-05-07 18:46 | 45.93658 | 3.16956 | 30966 ft | 444 kts | 168° |
| 2026-05-07 18:46 | 45.87581 | 3.17970 | 30979 ft | 438 kts | 184° |
| 2026-05-07 18:47 | 45.81479 | 3.17841 | 30984 ft | 438 kts | 183° |
| 2026-05-07 18:47 | 45.75372 | 3.17755 | 30991 ft | 437 kts | 183° |
| 2026-05-07 18:48 | 45.69267 | 3.17672 | 30989 ft | 437 kts | 183° |
| 2026-05-07 18:48 | 45.63168 | 3.17591 | 30983 ft | 437 kts | 183° |
| 2026-05-07 18:49 | 45.57088 | 3.17509 | 30982 ft | 437 kts | 183° |
| 2026-05-07 18:49 | 45.50988 | 3.17428 | 30981 ft | 437 kts | 183° |
| 2026-05-07 18:50 | 45.44906 | 3.17347 | 30981 ft | 437 kts | 183° |
| 2026-05-07 18:50 | 45.38818 | 3.17266 | 30978 ft | 436 kts | 183° |
| 2026-05-07 18:51 | 45.32745 | 3.17185 | 30973 ft | 435 kts | 183° |
| 2026-05-07 18:51 | 45.26667 | 3.17104 | 30973 ft | 435 kts | 183° |
| 2026-05-07 18:52 | 45.20612 | 3.17024 | 30971 ft | 435 kts | 183° |
| 2026-05-07 18:52 | 45.14562 | 3.16944 | 30967 ft | 435 kts | 183° |
| 2026-05-07 18:53 | 45.08581 | 3.16867 | 30953 ft | 422 kts | 183° |
| 2026-05-07 18:53 | 45.05700 | 3.16830 | 30906 ft | 405 kts | 184° |
| 2026-05-07 18:53 | 45.02821 | 3.16790 | 30937 ft | 418 kts | 184° |
| 2026-05-07 18:54 | 44.96961 | 3.16713 | 30927 ft | 420 kts | 183° |
| 2026-05-07 18:54 | 44.91150 | 3.16638 | 30928 ft | 419 kts | 184° |
| 2026-05-07 18:55 | 44.85455 | 3.16562 | 30136 ft | 418 kts | 184° |
| 2026-05-07 18:55 | 44.82589 | 3.16526 | 29315 ft | 411 kts | 184° |
| 2026-05-07 18:55 | 44.79747 | 3.16488 | 28508 ft | 406 kts | 183° |
| 2026-05-07 18:55 | 44.76955 | 3.16452 | 27706 ft | 401 kts | 183° |
| 2026-05-07 18:56 | 44.74184 | 3.16415 | 26982 ft | 395 kts | 183° |
| 2026-05-07 18:56 | 44.71439 | 3.16379 | 26483 ft | 395 kts | 183° |
| 2026-05-07 18:56 | 44.68717 | 3.16344 | 26007 ft | 393 kts | 183° |
| 2026-05-07 18:56 | 44.65970 | 3.16308 | 25560 ft | 390 kts | 182° |
| 2026-05-07 18:57 | 44.63300 | 3.16273 | 25131 ft | 388 kts | 182° |
| 2026-05-07 18:57 | 44.60613 | 3.16358 | 24693 ft | 388 kts | 174° |
| 2026-05-07 18:57 | 44.57955 | 3.17044 | 24285 ft | 388 kts | 171° |
| 2026-05-07 18:57 | 44.55311 | 3.17777 | 23850 ft | 386 kts | 171° |
| 2026-05-07 18:58 | 44.52708 | 3.18500 | 23424 ft | 384 kts | 171° |
| 2026-05-07 18:58 | 44.50103 | 3.19224 | 23000 ft | 381 kts | 171° |
| 2026-05-07 18:58 | 44.47499 | 3.19947 | 22575 ft | 379 kts | 171° |
| 2026-05-07 18:58 | 44.44921 | 3.20662 | 22159 ft | 377 kts | 171° |
| 2026-05-07 18:59 | 44.42357 | 3.21372 | 21862 ft | 374 kts | 171° |
| 2026-05-07 18:59 | 44.39805 | 3.22078 | 21636 ft | 373 kts | 171° |
| 2026-05-07 18:59 | 44.37285 | 3.22775 | 21264 ft | 374 kts | 171° |
| 2026-05-07 18:59 | 44.34733 | 3.23480 | 20732 ft | 372 kts | 171° |
| 2026-05-07 19:00 | 44.32206 | 3.24178 | 20185 ft | 368 kts | 171° |
| 2026-05-07 19:00 | 44.29720 | 3.24864 | 19647 ft | 365 kts | 171° |
| 2026-05-07 19:00 | 44.27233 | 3.25549 | 19106 ft | 362 kts | 170° |
| 2026-05-07 19:00 | 44.24784 | 3.26223 | 18656 ft | 358 kts | 170° |
| 2026-05-07 19:01 | 44.22371 | 3.26888 | 18538 ft | 356 kts | 170° |
| 2026-05-07 19:01 | 44.19927 | 3.27560 | 18423 ft | 357 kts | 170° |
| 2026-05-07 19:01 | 44.17487 | 3.28230 | 18299 ft | 357 kts | 170° |
| 2026-05-07 19:01 | 44.15044 | 3.28901 | 18183 ft | 357 kts | 170° |
| 2026-05-07 19:02 | 44.12622 | 3.29566 | 18089 ft | 357 kts | 170° |
| 2026-05-07 19:02 | 44.10168 | 3.30239 | 17991 ft | 357 kts | 170° |
| 2026-05-07 19:02 | 44.07727 | 3.30907 | 17896 ft | 357 kts | 170° |
| 2026-05-07 19:02 | 44.05289 | 3.31575 | 17801 ft | 357 kts | 170° |
| 2026-05-07 19:03 | 44.02849 | 3.32242 | 17703 ft | 356 kts | 170° |
| 2026-05-07 19:03 | 44.00435 | 3.32901 | 17607 ft | 354 kts | 170° |
| 2026-05-07 19:03 | 43.98104 | 3.33541 | 17481 ft | 334 kts | 170° |
| 2026-05-07 19:03 | 43.95855 | 3.34156 | 17356 ft | 327 kts | 170° |
| 2026-05-07 19:04 | 43.93518 | 3.34793 | 17302 ft | 352 kts | 170° |
| 2026-05-07 19:04 | 43.91111 | 3.35451 | 17225 ft | 356 kts | 170° |
| 2026-05-07 19:04 | 43.88662 | 3.36121 | 17134 ft | 355 kts | 170° |
| 2026-05-07 19:04 | 43.86247 | 3.36780 | 17039 ft | 354 kts | 170° |
| 2026-05-07 19:05 | 43.83829 | 3.37438 | 16945 ft | 354 kts | 170° |
| 2026-05-07 19:05 | 43.81426 | 3.38091 | 16853 ft | 353 kts | 170° |
| 2026-05-07 19:05 | 43.79006 | 3.38747 | 16384 ft | 353 kts | 170° |
| 2026-05-07 19:05 | 43.76614 | 3.39396 | 15996 ft | 349 kts | 170° |
| 2026-05-07 19:06 | 43.74250 | 3.40037 | 15615 ft | 347 kts | 169° |
| 2026-05-07 19:06 | 43.69591 | 3.41643 | 14838 ft | 345 kts | 151° |
| 2026-05-07 19:06 | 43.67828 | 3.43846 | 14456 ft | 348 kts | 126° |
| 2026-05-07 19:07 | 43.66894 | 3.46856 | 13990 ft | 347 kts | 105° |
| 2026-05-07 19:07 | 43.66317 | 3.50079 | 13584 ft | 344 kts | 104° |
| 2026-05-07 19:07 | 43.65643 | 3.53232 | 13191 ft | 341 kts | 116° |
| 2026-05-07 19:07 | 43.64526 | 3.56134 | 12885 ft | 340 kts | 119° |
| 2026-05-07 19:08 | 43.63387 | 3.58983 | 12505 ft | 338 kts | 119° |
| 2026-05-07 19:08 | 43.62258 | 3.61800 | 12133 ft | 336 kts | 119° |
| 2026-05-07 19:08 | 43.61134 | 3.64604 | 11514 ft | 341 kts | 118° |
| 2026-05-07 19:08 | 43.59997 | 3.67471 | 10818 ft | 329 kts | 118° |
| 2026-05-07 19:09 | 43.58945 | 3.70201 | 10107 ft | 308 kts | 117° |
| 2026-05-07 19:09 | 43.58026 | 3.72696 | 9773 ft | 283 kts | 116° |
| 2026-05-07 19:09 | 43.57175 | 3.75133 | 8869 ft | 282 kts | 114° |
| 2026-05-07 19:09 | 43.56389 | 3.77533 | 8208 ft | 271 kts | 112° |
| 2026-05-07 19:10 | 43.55656 | 3.79858 | 7637 ft | 261 kts | 112° |
| 2026-05-07 19:10 | 43.54935 | 3.82099 | 6993 ft | 254 kts | 112° |
| 2026-05-07 19:10 | 43.54236 | 3.84275 | 6536 ft | 242 kts | 112° |
| 2026-05-07 19:10 | 43.53576 | 3.86422 | 5622 ft | 252 kts | 111° |
| 2026-05-07 19:11 | 43.52966 | 3.88584 | 5279 ft | 232 kts | 109° |
| 2026-05-07 19:11 | 43.52419 | 3.90564 | 4984 ft | 216 kts | 112° |
| 2026-05-07 19:11 | 43.51750 | 3.92385 | 4517 ft | 210 kts | 119° |
| 2026-05-07 19:11 | 43.50993 | 3.94059 | 4018 ft | 207 kts | 120° |
| 2026-05-07 19:12 | 43.50310 | 3.95769 | 3750 ft | 193 kts | 115° |
| 2026-05-07 19:12 | 43.49782 | 3.97388 | 3609 ft | 182 kts | 109° |
| 2026-05-07 19:12 | 43.49595 | 3.98945 | 3645 ft | 155 kts | 81° |
| 2026-05-07 19:12 | 43.49996 | 4.00311 | 3277 ft | 157 kts | 61° |
| 2026-05-07 19:13 | 43.50583 | 4.01550 | 2837 ft | 156 kts | 55° |
| 2026-05-07 19:13 | 43.51261 | 4.02712 | 2324 ft | 158 kts | 46° |
| 2026-05-07 19:13 | 43.52101 | 4.03648 | 1969 ft | 148 kts | 32° |
| 2026-05-07 19:13 | 43.53056 | 4.04147 | 1686 ft | 150 kts | 6° |
| 2026-05-07 19:14 | 43.54055 | 4.03834 | 1355 ft | 149 kts | 328° |
| 2026-05-07 19:14 | 43.54822 | 4.02883 | 1047 ft | 148 kts | 308° |
| 2026-05-07 19:14 | 43.55460 | 4.01795 | 803 ft | 149 kts | 306° |
| 2026-05-07 19:14 | 43.56049 | 4.00632 | 467 ft | 144 kts | 302° |
| 2026-05-07 19:15 | 43.56612 | 3.99544 | 254 ft | 137 kts | 302° |
| 2026-05-07 19:15 | 43.57162 | 3.98452 | 99 ft | 139 kts | 301° |
| 2026-05-07 19:15 | 43.57687 | 3.97396 | 15 ft | 122 kts | 302° |
| 2026-05-07 19:15 | 43.58093 | 3.96599 | 17 ft | 82 kts | 304° |
| 2026-05-07 19:16 | 43.58297 | 3.96192 | 20 ft | 19 kts | 303° |
| 2026-05-07 19:16 | 43.58293 | 3.96047 | 20 ft | 10 kts | 244° |
| 2026-05-07 19:16 | 43.58276 | 3.96000 | 21 ft | 4 kts | 244° |
| 2026-05-07 19:16 | 43.58254 | 3.95978 | 21 ft | 4 kts | 197° |
| 2026-05-07 19:17 | 43.58221 | 3.95976 | 20 ft | 5 kts | 169° |
| 2026-05-07 19:17 | 43.58190 | 3.96005 | 20 ft | 5 kts | 126° |
| 2026-05-07 19:17 | 43.58153 | 3.96079 | 19 ft | 13 kts | 125° |
| 2026-05-07 19:17 | 43.58090 | 3.96204 | 18 ft | 15 kts | 125° |
| 2026-05-07 19:18 | 43.58047 | 3.96263 | 18 ft | 6 kts | 185° |
| 2026-05-07 19:18 | 43.58003 | 3.96230 | 18 ft | 7 kts | 214° |
| 2026-05-07 19:18 | 43.57971 | 3.96175 | 18 ft | 7 kts | 257° |
| 2026-05-07 19:18 | 43.57956 | 3.96110 | 18 ft | 5 kts | 225° |
| 2026-05-07 19:19 | 43.57939 | 3.96080 | 18 ft | 3 kts | 255° |
| 2026-05-07 19:19 | 43.57933 | 3.96053 | 19 ft | 0 kts | 254° |